Eads, CO

1:08 AM MDT on July 25, 2016 (GMT -0600)
Kit Carson | | Change Station

Elev 4301 ft 38.77 °N, 102.79 °W | Updated 20 seconds ago

Clear
Clear
63.8 °F
Feels Like 63.8 °F
N
10.3
Wind Variable Wind from ENE
Gusts 12.0 mph

Today
High -- | Low -- °F
--% Chance of Precip.
Yesterday
High -- | Low -- °F
Precip. -- in
Pressure 30.03 in
Visibility 10.0 miles
Clouds Clear
Dew Point 58 °F
Humidity 83%
Rainfall 0.00 in
Snow Depth Not available.
5:47 AM 8:06 PM
Waning Gibbous, 69% visible
METAR KLAA 250653Z AUTO 18003KT 10SM CLR 18/16 A3018 RMK AO2 SLP168 T01830156 403560183 TSNO
Pressure 30.03 in
Visibility 10.0 miles
Clouds Clear
Dew Point 58 °F
Humidity 83%
Rainfall 0.00 in
Snow Depth Not available.
5:47 AM 8:06 PM
Waning Gibbous, 69% visible
METAR KLAA 250653Z AUTO 18003KT 10SM CLR 18/16 A3018 RMK AO2 SLP168 T01830156 403560183 TSNO

10-Day Weather Forecast

Almanac

Astronomy

Jul. 25, 2016 Rise Set
Actual Time
Civil Twilight
Nautical Twilight
Astronomical Twilight
Moon
Length of Visible Light
Length of Day
Tomorrow will be .
, % of the Moon is Illuminated

Today's Extremes

State Highs State Lows

Community

WunderPhotos

Upload Photos

1,927,274 photos uploaded!

WunderBlog® & News

Nearby

Air Quality

  Air Quality AQ Index Pollutant
Not available.

Snow Depth

Station Depth Elevation

Earthquake Activity

City Distance Mag. Time & Date
Minimum magnitude displayed is 2.5.

Coastal Water Temperatures

Place Temperature

Stations

Nearby Weather Stations

Station Location Temp. Windchill Dew Point Humidity Wind Precip. Elev Updated Type
                   

Watches & Warnings

There are currently no watches in effect.